KAYS/AYS METAR and TAF weather

Enter ICAO airport designator
Station Type Date Time Source
KAYS METAR 2021/07/24 20:35 UTC NOAA

KAYS 242035Z AUTO 08011G14KT 10SM SCT050 BKN055 32/20 A3003 RMK AO2 T03220198


Station Type Date Time Source
KAYS Decoded METAR 2021/07/24 20:35 UTC NOAA

Waycross / Ware County, Ga, GA, United States (KAYS) 31-15N 082-24W 46M
Jul 24, 2021 - 04:35 PM EDT / 2021.07.24 2035 UTC
Wind: from the E (080 degrees) at 13 MPH (11 KT) gusting to 16 MPH (14 KT):0
Visibility: 10 mile(s):0
Sky conditions: mostly cloudy
Temperature: 90.0 F (32.2 C)
Dew Point: 67.6 F (19.8 C)
Relative Humidity: 47%
Pressure (altimeter): 30.03 in. Hg (1016 hPa)
ob: KAYS 242035Z AUTO 08011G14KT 10SM SCT050 BKN055 32/20 A3003 RMK AO2 T03220198
cycle: 20

Station Type Date Time Source
KAYS TAF UTC NOAA

Error!

Example: see airport list